To NAV CANADA Home Page Login to a new session Search on AWWS site Feedback and Comments Disclaimer Vers la page française équivalente Tips FAQ What's new on the site To the Forecasts and Observations / NOTAM section To "File a Flight Plan" website Publications and other links Update of the User's profile FIC Telephone Numbers My Weather Data Folder Route Weather Data Regional Weather Data Local Weather Data To the Forecasts and Observations / NOTAM section
Request Generated 12/10/2016 at 16:32:12 UTC . Weather information available at that time is displayed.

METAR/TAF

OTTAWA/MACDONALD-CARTIER INTL/ON    

METAR CYOW 101600Z 25005KT 15SM FEW020 FEW050 BKN280 M08/M11 A3034
RMK CU1SC1CI5 SLP285=
METAR CYOW 101500Z 29006KT 15SM FEW050 BKN280 M09/M11 A3035 RMK
SC2CI5 SLP289=
METAR CYOW 101400Z 27006KT 15SM BKN050 BKN280 M10/M12 A3035 RMK
SC5CI2 SLP286=

TAF CYOW 101438Z 1015/1112 27005KT P6SM BKN050 BKN100
FM110200 13005KT P6SM FEW080
RMK NXT FCST BY 101800Z=
Your time UTC time
Weather data provided by Environment Canada and NAV CANADA